Time;durP1;ratioP1;P1;durP2;ratioP2;P2;SDS_P1;SDS_P2;PMS_P1;PMS_P2;Temp;Humidity;BMP_temperature;BMP_pressure;BME280_temperature;BME280_humidity;BME280_pressure;Samples;Min_cycle;Max_cycle;Signal;HPM_P1;HPM_P2
2022/03/27 00:01:30;;;;;;;;;;;;;;;7.73;45.97;101016.06;6243761;23;19920;-88
2022/03/27 00:03:55;;;;;;;;;;;;;;;7.73;45.69;101014.09;6244219;23;20454;-88
2022/03/27 00:06:21;;;;;;;;;;;;;;;7.75;45.75;101013.72;6244311;23;19924;-88
2022/03/27 00:08:46;;;;;;;;;;;;;;;7.81;45.76;101009.34;6244343;23;19916;-87
2022/03/27 00:11:24;;;;;;;;;;;;;;;7.84;45.14;101008.59;6244476;23;19923;-88
2022/03/27 00:13:53;;;;;;;;;;;;;;;7.87;45.27;101013.31;6244578;23;19915;-89
2022/03/27 00:16:19;;;;;;;;;;;;;;;7.89;45.15;101010.94;6244465;23;19920;-87
2022/03/27 00:18:44;;;;;;;;;;;;;;;7.89;44.99;101008.16;6244504;23;19915;-79
2022/03/27 00:21:09;;;;;;;;;;;;;;;7.86;44.83;101009.75;6244353;23;20323;-79
2022/03/27 00:23:35;;;;;;;;;;;;;;;7.82;44.65;101008.19;6243902;23;19991;-79
2022/03/27 00:26:00;;;;;;;;;;;;;;;7.81;44.39;101009.34;6244510;23;19924;-79
2022/03/27 00:28:31;;;;;;;;;;;;;;;7.81;44.36;101006.59;6243827;23;20338;-79
2022/03/27 00:31:00;;;;;;;;;;;;;;;7.83;44.34;101012.53;6244302;23;19916;-80
2022/03/27 00:33:26;;;;;;;;;;;;;;;7.81;44.46;100998.31;6243879;23;19990;-79
2022/03/27 00:35:52;;;;;;;;;;;;;;;7.78;44.57;101005.41;6244605;23;20372;-79
2022/03/27 00:38:18;;;;;;;;;;;;;;;7.74;44.31;101001.88;6244296;23;19998;-80
2022/03/27 00:40:43;;;;;;;;;;;;;;;7.73;44.07;100996.72;6217591;23;20592;-79
2022/03/27 00:43:09;;;;;;;;;;;;;;;7.71;44.12;101008.19;6244096;23;19953;-79
2022/03/27 00:45:34;;;;;;;;;;;;;;;7.72;44.02;101006.22;6243817;23;20341;-79
2022/03/27 00:47:59;;;;;;;;;;;;;;;7.76;44.54;101009.78;6244274;23;19966;-79
2022/03/27 00:50:25;;;;;;;;;;;;;;;7.77;44.47;101003.03;6217468;23;19942;-79
2022/03/27 00:52:50;;;;;;;;;;;;;;;7.79;44.22;101006.22;6244324;23;19916;-79
2022/03/27 00:55:16;;;;;;;;;;;;;;;7.84;43.29;101003.84;6244346;23;19915;-88
2022/03/27 00:57:41;;;;;;;;;;;;;;;7.92;42.24;101001.88;6216942;23;19935;-88
2022/03/27 01:00:10;;;;;;;;;;;;;;;8.00;41.41;100999.91;6244056;23;20360;-88
2022/03/27 06:39:42;;;;;;;;;;;;;;;11.95;50.01;101206.94;6276456;22;19919;-92
2022/03/27 06:42:12;;;;;;;;;;;;;;;11.97;50.13;101198.97;6200934;22;19915;-91
2022/03/27 06:44:43;;;;;;;;;;;;;;;12.04;50.03;101204.44;6215117;22;19915;-94
2022/03/27 06:47:11;;;;;;;;;;;;;;;12.05;50.55;101197.66;6245205;22;20585;-95
2022/03/27 07:03:15;;;;;;;;;;;;;;;12.82;49.32;101213.56;6272986;22;20335;-87
2022/03/27 07:05:41;;;;;;;;;;;;;;;12.69;49.99;101205.03;6221353;22;19990;-87
2022/03/27 07:08:07;;;;;;;;;;;;;;;12.60;49.65;101213.13;6247143;22;19982;-86
2022/03/27 07:10:32;;;;;;;;;;;;;;;12.50;50.61;101219.63;6222654;22;19997;-87
2022/03/27 07:12:58;;;;;;;;;;;;;;;12.63;51.89;101217.84;6221024;22;19915;-86
2022/03/27 07:15:24;;;;;;;;;;;;;;;12.84;51.37;101211.13;6221207;22;19919;-87
2022/03/27 07:17:50;;;;;;;;;;;;;;;12.95;51.16;101212.53;6196274;22;19942;-85
2022/03/27 07:20:19;;;;;;;;;;;;;;;13.10;50.57;101229.81;6220496;22;20126;-85
2022/03/27 07:22:45;;;;;;;;;;;;;;;13.29;50.40;101217.91;6272904;22;19974;-87
2022/03/27 07:25:11;;;;;;;;;;;;;;;13.31;50.66;101206.31;6245007;22;19911;-86
2022/03/27 07:27:37;;;;;;;;;;;;;;;13.57;50.70;101216.56;6272459;22;19915;-88
2022/03/27 07:30:03;;;;;;;;;;;;;;;13.70;50.45;101220.28;6220434;22;19927;-87
2022/03/27 07:32:28;;;;;;;;;;;;;;;13.92;49.90;101217.81;6245657;22;19942;-88
2022/03/27 07:34:54;;;;;;;;;;;;;;;14.19;49.33;101220.41;6220780;22;20251;-88
2022/03/27 07:37:19;;;;;;;;;;;;;;;14.43;48.59;101219.09;6218090;22;19986;-88
2022/03/27 07:39:45;;;;;;;;;;;;;;;14.63;47.92;101217.00;6219273;22;19917;-87
2022/03/27 07:42:10;;;;;;;;;;;;;;;14.53;48.50;101223.63;6216560;22;19915;-88
2022/03/27 07:44:36;;;;;;;;;;;;;;;14.54;48.13;101222.41;6217169;22;20395;-88
2022/03/27 07:47:01;;;;;;;;;;;;;;;14.60;48.28;101217.09;6218427;22;20032;-89
2022/03/27 07:49:27;;;;;;;;;;;;;;;14.83;47.49;101234.44;6271856;22;19950;-88
2022/03/27 07:51:53;;;;;;;;;;;;;;;14.69;47.69;101220.03;6269207;22;19911;-86
2022/03/27 07:54:19;;;;;;;;;;;;;;;14.91;47.42;101216.28;6244110;22;20410;-85
2022/03/27 07:56:44;;;;;;;;;;;;;;;15.09;46.81;101220.59;6216426;22;19915;-85
2022/03/27 07:59:09;;;;;;;;;;;;;;;15.40;46.48;101227.38;6242691;22;20316;-89
2022/03/27 08:01:35;;;;;;;;;;;;;;;15.59;45.88;101229.25;6218893;22;19919;-89
2022/03/27 08:04:00;;;;;;;;;;;;;;;15.84;45.11;101215.31;6218362;22;19916;-89
2022/03/27 08:06:26;;;;;;;;;;;;;;;15.90;44.63;101217.56;6218675;22;19994;-89
2022/03/27 08:08:51;;;;;;;;;;;;;;;15.61;45.25;101226.00;6218523;22;19915;-89
2022/03/27 08:11:17;;;;;;;;;;;;;;;15.36;45.28;101219.06;6244467;22;20359;-89
2022/03/27 08:13:43;;;;;;;;;;;;;;;15.28;46.37;101228.09;6218424;22;19982;-89
2022/03/27 08:16:08;;;;;;;;;;;;;;;15.49;45.84;101218.34;6219655;22;19919;-89
2022/03/27 08:18:34;;;;;;;;;;;;;;;15.82;45.23;101223.38;6218910;22;19954;-90
2022/03/27 08:20:59;;;;;;;;;;;;;;;16.23;44.02;101216.13;6219253;22;20251;-89
2022/03/27 08:23:25;;;;;;;;;;;;;;;16.39;43.29;101218.81;6220257;22;19919;-89
2022/03/27 08:28:35;;;;;;;;;;;;;;;16.23;43.60;101214.13;6224679;22;19918;-90
2022/03/27 08:31:01;;;;;;;;;;;;;;;16.31;43.46;101223.88;6245913;22;20289;-90
2022/03/27 08:33:27;;;;;;;;;;;;;;;16.42;43.29;101219.97;6220913;22;19916;-90
2022/03/27 08:35:53;;;;;;;;;;;;;;;16.51;43.34;101220.84;6244481;22;19912;-89
2022/03/27 08:38:19;;;;;;;;;;;;;;;16.58;43.08;101217.06;6245406;22;20345;-89
2022/03/27 08:40:44;;;;;;;;;;;;;;;16.74;43.07;101212.09;6246176;22;19950;-89
2022/03/27 08:43:16;;;;;;;;;;;;;;;16.80;42.81;101212.31;6219766;22;19970;-89
2022/03/27 08:45:42;;;;;;;;;;;;;;;16.96;42.68;101219.78;6220384;22;19919;-89
2022/03/27 08:48:08;;;;;;;;;;;;;;;17.11;42.56;101213.22;6219551;22;20320;-89
2022/03/27 08:50:36;;;;;;;;;;;;;;;17.47;41.93;101215.53;6220776;22;19919;-89
2022/03/27 08:53:04;;;;;;;;;;;;;;;17.43;41.02;101220.50;6245313;22;19919;-89
2022/03/27 08:55:29;;;;;;;;;;;;;;;17.63;40.73;101226.59;6218300;22;19919;-89
2022/03/27 08:57:54;;;;;;;;;;;;;;;17.76;41.41;101223.72;6220447;22;19915;-89
2022/03/27 09:00:24;;;;;;;;;;;;;;;18.01;40.34;101237.63;6245540;22;20263;-90
2022/03/27 09:02:50;;;;;;;;;;;;;;;17.64;40.93;101230.97;6220194;22;19974;-89
2022/03/27 09:05:16;;;;;;;;;;;;;;;17.73;40.68;101229.47;6219815;22;20282;-89
2022/03/27 09:07:41;;;;;;;;;;;;;;;17.82;40.84;101232.34;6220378;22;19919;-89
2022/03/27 09:10:07;;;;;;;;;;;;;;;17.90;41.07;101234.44;6245203;22;20406;-89
2022/03/27 09:12:33;;;;;;;;;;;;;;;17.83;40.05;101231.13;6243409;22;20331;-90
2022/03/27 09:14:58;;;;;;;;;;;;;;;17.25;41.65;101237.97;6219912;22;19915;-89
2022/03/27 09:17:24;;;;;;;;;;;;;;;17.17;41.71;101228.25;6220119;22;20243;-89
2022/03/27 09:19:50;;;;;;;;;;;;;;;17.37;41.79;101232.78;6220169;22;19939;-90
2022/03/27 09:22:15;;;;;;;;;;;;;;;17.35;41.58;101241.63;6244998;22;19915;-90
2022/03/27 09:24:42;;;;;;;;;;;;;;;17.42;41.12;101230.19;6244690;22;19999;-90
2022/03/27 09:27:07;;;;;;;;;;;;;;;17.18;41.43;101245.88;6217486;22;19919;-89
2022/03/27 09:29:53;;;;;;;;;;;;;;;17.24;42.25;101235.63;6244592;22;20394;-90
2022/03/27 09:32:25;;;;;;;;;;;;;;;17.48;40.78;101247.97;6218732;22;19922;-91
2022/03/27 09:35:01;;;;;;;;;;;;;;;17.81;40.49;101234.38;6194722;22;19927;-90
2022/03/27 09:37:27;;;;;;;;;;;;;;;17.95;39.88;101238.69;6245398;22;19969;-90
2022/03/27 09:39:56;;;;;;;;;;;;;;;17.71;40.35;101236.31;6195419;22;19946;-90
2022/03/27 09:42:22;;;;;;;;;;;;;;;18.08;40.04;101242.16;6218446;22;19970;-89
2022/03/27 09:44:47;;;;;;;;;;;;;;;17.85;40.26;101240.63;6209911;22;19907;-90
2022/03/27 09:47:13;;;;;;;;;;;;;;;17.76;40.87;101220.94;6238802;22;19923;-90
2022/03/27 09:49:42;;;;;;;;;;;;;;;18.09;40.52;101233.28;6245505;22;20067;-90
2022/03/27 09:52:08;;;;;;;;;;;;;;;18.04;39.77;101231.06;6240825;22;19946;-90
2022/03/27 09:54:44;;;;;;;;;;;;;;;18.25;40.12;101237.09;6245584;22;19922;-91
2022/03/27 09:57:36;;;;;;;;;;;;;;;18.51;39.39;101230.84;6240808;22;19920;-89
2022/03/27 10:00:07;;;;;;;;;;;;;;;18.72;38.66;101229.22;6286466;22;19919;-91
2022/03/27 10:02:38;;;;;;;;;;;;;;;18.57;39.15;101231.81;6272610;22;19915;-90
2022/03/27 10:05:10;;;;;;;;;;;;;;;18.94;40.65;101229.09;6220008;22;20475;-90
2022/03/27 10:07:37;;;;;;;;;;;;;;;19.06;38.10;101230.97;6222567;22;19911;-91
2022/03/27 10:10:03;;;;;;;;;;;;;;;19.23;38.10;101223.81;6221676;22;20386;-92
2022/03/27 10:12:29;;;;;;;;;;;;;;;19.12;38.61;101217.88;6220662;22;19922;-91
2022/03/27 10:15:03;;;;;;;;;;;;;;;19.14;38.21;101218.16;6219851;22;19935;-91
2022/03/27 10:17:30;;;;;;;;;;;;;;;19.08;38.55;101211.63;6220926;22;19998;-90
2022/03/27 10:20:00;;;;;;;;;;;;;;;18.98;38.20;101221.28;6217783;22;19943;-91
2022/03/27 10:22:27;;;;;;;;;;;;;;;18.78;39.07;101210.47;6221242;22;19990;-90
2022/03/27 10:24:54;;;;;;;;;;;;;;;18.84;38.93;101217.06;6244206;22;19915;-91
2022/03/27 10:27:20;;;;;;;;;;;;;;;19.06;38.44;101214.09;6193840;22;20001;-91
2022/03/27 10:29:46;;;;;;;;;;;;;;;19.43;38.25;101209.28;6244796;22;20326;-89
2022/03/27 10:32:12;;;;;;;;;;;;;;;19.64;37.79;101208.34;6220085;22;19915;-93
2022/03/27 10:34:40;;;;;;;;;;;;;;;19.51;37.51;101204.91;6219833;22;19950;-90
2022/03/27 10:37:08;;;;;;;;;;;;;;;19.64;37.06;101205.53;6271356;22;19919;-92
2022/03/27 10:39:37;;;;;;;;;;;;;;;19.14;37.92;101204.09;6245646;22;19919;-90
2022/03/27 10:42:20;;;;;;;;;;;;;;;19.54;38.29;101203.97;6196118;22;19923;-90
2022/03/27 10:44:47;;;;;;;;;;;;;;;19.80;37.02;101198.78;6220742;22;19922;-91
2022/03/27 10:47:14;;;;;;;;;;;;;;;20.01;36.93;101203.41;6243814;22;19911;-92
2022/03/27 10:49:39;;;;;;;;;;;;;;;19.99;36.27;101197.47;6219362;22;19911;-91
2022/03/27 10:52:05;;;;;;;;;;;;;;;20.05;36.45;101191.97;6243975;22;20308;-90
2022/03/27 10:54:31;;;;;;;;;;;;;;;20.13;36.22;101193.97;6218917;22;19919;-90
2022/03/27 10:56:57;;;;;;;;;;;;;;;20.31;36.99;101193.91;6194806;22;19915;-91
2022/03/27 10:59:24;;;;;;;;;;;;;;;19.99;35.73;101189.78;6218614;22;20323;-90
2022/03/27 11:01:57;;;;;;;;;;;;;;;20.01;36.64;101190.13;6218986;22;19919;-91
2022/03/27 11:04:23;;;;;;;;;;;;;;;20.19;37.75;101194.88;6244371;22;19919;-90
2022/03/27 11:06:49;;;;;;;;;;;;;;;20.49;35.59;101187.41;6271964;22;19953;-90
2022/03/27 11:09:33;;;;;;;;;;;;;;;20.57;36.68;101191.44;6245860;22;19961;-91
2022/03/27 11:12:00;;;;;;;;;;;;;;;20.54;35.43;101183.97;6276422;22;19911;-91
2022/03/27 11:14:46;;;;;;;;;;;;;;;20.51;36.70;101184.09;6200334;22;20321;-91
2022/03/27 11:17:13;;;;;;;;;;;;;;;20.63;34.92;101185.91;6275476;22;19915;-90
2022/03/27 11:19:45;;;;;;;;;;;;;;;20.58;35.48;101173.28;6250256;22;19912;-91
2022/03/27 11:22:30;;;;;;;;;;;;;;;20.40;35.62;101179.78;6223382;22;19915;-93
2022/03/27 11:25:14;;;;;;;;;;;;;;;20.29;36.69;101179.53;6246504;22;19947;-91
2022/03/27 11:27:53;;;;;;;;;;;;;;;20.37;35.97;101171.50;6246910;22;20025;-91
2022/03/27 11:30:19;;;;;;;;;;;;;;;20.54;35.78;101177.53;6221948;22;19911;-91
2022/03/27 11:33:20;;;;;;;;;;;;;;;20.46;35.48;101171.47;6221934;22;19919;-91
2022/03/27 11:36:04;;;;;;;;;;;;;;;20.25;35.26;101176.09;6148389;23;20508;-91
2022/03/27 11:38:48;;;;;;;;;;;;;;;20.15;36.45;101176.59;6237807;22;20363;-91
2022/03/27 11:41:30;;;;;;;;;;;;;;;20.12;35.94;101169.88;6272424;22;20275;-90
2022/03/27 11:43:56;;;;;;;;;;;;;;;20.29;35.76;101162.63;6221273;22;19925;-91
2022/03/27 11:46:26;;;;;;;;;;;;;;;20.65;35.64;101166.50;6196630;22;20006;-89
2022/03/27 11:48:55;;;;;;;;;;;;;;;20.33;36.11;101163.25;6219645;22;19922;-89
2022/03/27 11:51:20;;;;;;;;;;;;;;;20.35;35.74;101157.09;6220300;22;20370;-91
2022/03/27 11:53:46;;;;;;;;;;;;;;;20.60;36.83;101161.50;6222806;22;19958;-91
2022/03/27 11:56:11;;;;;;;;;;;;;;;20.94;35.60;101144.84;6222246;22;19916;-91
2022/03/27 11:58:38;;;;;;;;;;;;;;;21.10;33.75;101142.81;6219769;22;20339;-90
2022/03/27 12:01:04;;;;;;;;;;;;;;;20.95;34.40;101151.22;6245127;22;19923;-91
2022/03/27 12:03:30;;;;;;;;;;;;;;;21.05;34.28;101138.63;6271652;22;20009;-91
2022/03/27 12:05:55;;;;;;;;;;;;;;;21.07;34.32;101147.38;6219489;22;19927;-91
2022/03/27 12:08:28;;;;;;;;;;;;;;;21.08;34.35;101148.16;6219458;22;19922;-91
2022/03/27 12:10:57;;;;;;;;;;;;;;;20.77;34.31;101146.53;6195637;22;19950;-91
2022/03/27 12:13:23;;;;;;;;;;;;;;;20.56;35.45;101141.97;6246616;22;19998;-91
2022/03/27 12:15:55;;;;;;;;;;;;;;;20.86;34.92;101148.50;6253209;22;19978;-92
2022/03/27 12:18:39;;;;;;;;;;;;;;;20.64;34.85;101140.34;6221088;22;20351;-91
2022/03/27 12:21:05;;;;;;;;;;;;;;;20.55;36.27;101128.34;6220111;22;19919;-91
2022/03/27 12:23:32;;;;;;;;;;;;;;;20.62;35.65;101133.63;6220507;22;19915;-91
2022/03/27 12:25:59;;;;;;;;;;;;;;;20.80;35.30;101133.50;6219816;22;20442;-91
2022/03/27 12:31:22;;;;;;;;;;;;;;;20.79;34.57;101126.28;6245146;22;19919;-91
2022/03/27 12:33:48;;;;;;;;;;;;;;;20.59;35.15;101124.09;6220497;22;20259;-90
2022/03/27 12:36:14;;;;;;;;;;;;;;;20.79;35.53;101118.59;6218947;22;19915;-90
2022/03/27 12:38:40;;;;;;;;;;;;;;;20.53;35.01;101120.38;6220522;22;20362;-91
2022/03/27 12:41:08;;;;;;;;;;;;;;;20.12;35.45;101124.81;6221878;22;19915;-91
2022/03/27 12:43:33;;;;;;;;;;;;;;;19.68;36.97;101112.47;6220560;22;19919;-90
2022/03/27 12:45:59;;;;;;;;;;;;;;;19.65;37.82;101117.03;6219221;22;19938;-91
2022/03/27 12:48:27;;;;;;;;;;;;;;;19.92;36.92;101113.31;6226164;22;19919;-91
2022/03/27 12:50:57;;;;;;;;;;;;;;;20.14;36.14;101122.28;6222180;22;20404;-91
2022/03/27 12:53:22;;;;;;;;;;;;;;;20.10;35.71;101107.59;6252207;22;19915;-91
2022/03/27 12:55:49;;;;;;;;;;;;;;;20.08;36.19;101109.34;6250821;22;19961;-91
2022/03/27 12:58:41;;;;;;;;;;;;;;;20.37;36.51;101101.06;6221148;22;19919;-91
2022/03/27 13:01:17;;;;;;;;;;;;;;;20.72;35.98;101093.59;6269017;22;19919;-92
2022/03/27 13:03:59;;;;;;;;;;;;;;;21.02;34.69;101100.09;6246127;22;19958;-91
2022/03/27 13:06:31;;;;;;;;;;;;;;;21.12;34.83;101107.25;6245959;22;19926;-92
2022/03/27 13:08:57;;;;;;;;;;;;;;;20.67;34.73;101096.31;6220441;22;20004;-92
2022/03/27 13:11:23;;;;;;;;;;;;;;;20.46;35.53;101092.56;6220329;22;19973;-92
2022/03/27 13:13:49;;;;;;;;;;;;;;;20.12;36.07;101096.63;6220727;22;19923;-92
2022/03/27 13:16:31;;;;;;;;;;;;;;;19.57;36.90;101089.69;6219447;22;20298;-91
2022/03/27 13:19:07;;;;;;;;;;;;;;;19.20;38.30;101095.38;6194690;22;19921;-92
2022/03/27 13:21:34;;;;;;;;;;;;;;;19.49;38.32;101078.00;6272142;22;19923;-92
2022/03/27 13:24:00;;;;;;;;;;;;;;;19.77;36.91;101092.75;6221137;22;20252;-92
2022/03/27 13:26:25;;;;;;;;;;;;;;;19.83;37.19;101090.81;6246158;22;19915;-92
2022/03/27 13:28:52;;;;;;;;;;;;;;;20.04;35.60;101078.53;6219866;22;20217;-93
2022/03/27 13:31:17;;;;;;;;;;;;;;;20.18;36.45;101069.34;6195041;22;19990;-92
2022/03/27 13:33:43;;;;;;;;;;;;;;;20.55;35.95;101083.25;6245002;22;19950;-92
2022/03/27 13:36:08;;;;;;;;;;;;;;;20.55;35.34;101063.50;6271067;22;19911;-91
2022/03/27 13:38:33;;;;;;;;;;;;;;;20.36;35.11;101076.97;6220576;22;20247;-91
2022/03/27 13:43:43;;;;;;;;;;;;;;;19.60;37.75;101071.84;6249607;22;19954;-91
2022/03/27 13:46:09;;;;;;;;;;;;;;;19.69;37.34;101069.00;6245024;22;19915;-91
2022/03/27 13:48:34;;;;;;;;;;;;;;;19.62;36.59;101064.47;6219833;22;20044;-92
2022/03/27 13:51:00;;;;;;;;;;;;;;;19.75;36.90;101072.72;6219049;22;19939;-91
2022/03/27 13:53:25;;;;;;;;;;;;;;;19.96;36.92;101069.66;6242482;22;19998;-92
2022/03/27 13:55:51;;;;;;;;;;;;;;;20.04;36.74;101061.63;6246000;22;19919;-91
2022/03/27 13:58:16;;;;;;;;;;;;;;;19.88;36.78;101053.59;6245589;22;20570;-91
2022/03/27 14:00:42;;;;;;;;;;;;;;;19.73;36.91;101044.28;6246225;22;20472;-92
2022/03/27 14:03:07;;;;;;;;;;;;;;;19.72;37.56;101048.34;6246309;22;19915;-91
2022/03/27 14:05:33;;;;;;;;;;;;;;;20.03;36.90;101060.06;6223647;22;19965;-91
2022/03/27 14:07:59;;;;;;;;;;;;;;;20.23;36.34;101051.81;6246590;22;20022;-92
2022/03/27 14:10:24;;;;;;;;;;;;;;;20.33;35.87;101049.75;6245583;22;19926;-92
2022/03/27 14:12:50;;;;;;;;;;;;;;;20.28;35.59;101042.69;6220707;22;20247;-92
2022/03/27 14:15:16;;;;;;;;;;;;;;;20.42;36.19;101029.97;6221220;22;19925;-92
2022/03/27 14:17:41;;;;;;;;;;;;;;;20.61;36.65;101036.22;6246927;22;19953;-93
2022/03/27 14:20:07;;;;;;;;;;;;;;;20.86;37.30;101035.69;6223418;22;19915;-92
2022/03/27 14:22:34;;;;;;;;;;;;;;;21.08;34.88;101035.31;6245955;22;20006;-92
2022/03/27 14:24:59;;;;;;;;;;;;;;;21.16;35.08;101040.13;6248760;22;19915;-92
2022/03/27 14:27:25;;;;;;;;;;;;;;;20.74;34.79;101034.72;6265696;22;19961;-90
2022/03/27 14:29:50;;;;;;;;;;;;;;;20.64;35.33;101038.06;6234754;22;19994;-90
2022/03/27 14:32:16;;;;;;;;;;;;;;;20.62;35.41;101038.56;6238616;22;19919;-91
2022/03/27 14:34:41;;;;;;;;;;;;;;;20.55;34.86;101029.69;6263800;22;19936;-90
2022/03/27 14:37:07;;;;;;;;;;;;;;;20.44;35.77;101039.50;6237528;22;19919;-90
2022/03/27 14:39:33;;;;;;;;;;;;;;;20.40;35.43;101026.84;6268454;22;20266;-90
2022/03/27 14:41:58;;;;;;;;;;;;;;;20.31;35.31;101022.03;6293365;22;19993;-89
2022/03/27 14:44:24;;;;;;;;;;;;;;;20.41;35.79;101025.59;6237606;22;19919;-89
2022/03/27 14:46:49;;;;;;;;;;;;;;;20.62;35.88;101015.25;6226275;22;19915;-89
2022/03/27 14:49:15;;;;;;;;;;;;;;;20.47;35.15;101021.59;6249112;22;20247;-88
2022/03/27 14:51:41;;;;;;;;;;;;;;;20.31;35.29;101019.22;6245699;22;19923;-89
2022/03/27 14:56:50;;;;;;;;;;;;;;;19.90;35.19;101023.69;6283486;22;19919;-89
2022/03/27 14:59:16;;;;;;;;;;;;;;;19.96;35.87;101013.34;6253137;22;19915;-89
2022/03/27 15:01:44;;;;;;;;;;;;;;;20.07;35.84;101012.78;6246420;22;19943;-90
2022/03/27 15:04:09;;;;;;;;;;;;;;;20.23;36.67;101008.75;6226692;22;20351;-90
2022/03/27 15:06:34;;;;;;;;;;;;;;;20.34;35.50;101006.97;6254304;22;19953;-92
2022/03/27 15:09:00;;;;;;;;;;;;;;;20.42;34.54;101008.19;6255392;22;19915;-89
2022/03/27 15:11:25;;;;;;;;;;;;;;;20.53;34.69;101007.63;6234127;22;19926;-89
2022/03/27 15:13:51;;;;;;;;;;;;;;;20.47;34.85;101010.34;6285501;22;19911;-87
2022/03/27 15:16:16;;;;;;;;;;;;;;;20.38;34.86;100999.13;6221422;22;19919;-92
2022/03/27 15:18:42;;;;;;;;;;;;;;;20.08;35.65;101000.28;6248019;22;19919;-91
2022/03/27 15:21:07;;;;;;;;;;;;;;;19.99;35.33;101003.13;6196593;22;19927;-92
2022/03/27 15:23:33;;;;;;;;;;;;;;;20.06;35.40;101005.59;6221630;22;19935;-92
2022/03/27 15:25:59;;;;;;;;;;;;;;;20.13;35.93;101001.66;6221667;22;19915;-90
2022/03/27 15:28:25;;;;;;;;;;;;;;;20.12;35.42;101000.88;6245735;22;19946;-88
2022/03/27 15:30:51;;;;;;;;;;;;;;;19.91;35.29;100991.47;6246761;22;19920;-85
2022/03/27 15:33:16;;;;;;;;;;;;;;;19.78;35.81;100990.91;6247056;22;19915;-88
2022/03/27 15:35:42;;;;;;;;;;;;;;;19.71;35.91;100999.72;6246880;22;19995;-94
2022/03/27 15:38:07;;;;;;;;;;;;;;;19.65;36.17;100995.22;6221797;22;19958;-87
2022/03/27 15:40:33;;;;;;;;;;;;;;;19.72;36.13;100995.63;6246305;22;19994;-89
2022/03/27 15:43:01;;;;;;;;;;;;;;;19.65;35.95;100998.03;6221837;22;19912;-89
2022/03/27 15:45:27;;;;;;;;;;;;;;;19.65;36.04;101001.63;6221458;22;20332;-90
2022/03/27 15:47:53;;;;;;;;;;;;;;;19.55;35.70;100997.28;6221743;22;19921;-89
2022/03/27 15:50:21;;;;;;;;;;;;;;;19.49;35.97;100994.31;6221119;22;20378;-90
2022/03/27 15:52:47;;;;;;;;;;;;;;;19.34;36.39;100992.66;6222346;22;19915;-91
2022/03/27 15:55:13;;;;;;;;;;;;;;;19.28;36.71;100995.34;6195603;22;19945;-90
2022/03/27 15:57:38;;;;;;;;;;;;;;;19.25;36.75;100989.88;6247153;22;20402;-91
2022/03/27 16:00:04;;;;;;;;;;;;;;;19.07;36.59;100982.28;6271433;22;19935;-91
2022/03/27 16:02:39;;;;;;;;;;;;;;;19.10;36.81;100989.75;6224766;22;19916;-91
2022/03/27 16:05:05;;;;;;;;;;;;;;;19.10;36.92;100982.09;6220670;22;20206;-91
2022/03/27 16:07:31;;;;;;;;;;;;;;;18.97;37.28;100987.13;6221529;22;19927;-90
2022/03/27 16:09:56;;;;;;;;;;;;;;;19.04;37.18;100978.38;6246872;22;19923;-89
2022/03/27 16:12:21;;;;;;;;;;;;;;;18.89;36.96;100977.47;6220934;22;19919;-91
2022/03/27 16:14:47;;;;;;;;;;;;;;;18.78;37.32;100974.38;6221278;22;19926;-89
2022/03/27 16:17:12;;;;;;;;;;;;;;;18.55;37.52;100975.81;6220608;22;19927;-91
2022/03/27 16:19:38;;;;;;;;;;;;;;;18.64;37.71;100975.78;6221502;22;20033;-89
2022/03/27 16:22:03;;;;;;;;;;;;;;;18.69;37.76;100971.56;6221576;22;19934;-91
2022/03/27 16:24:29;;;;;;;;;;;;;;;18.74;37.48;100970.16;6247019;22;19915;-94
2022/03/27 16:26:54;;;;;;;;;;;;;;;18.74;37.38;100972.97;6221929;22;19954;-90
2022/03/27 16:29:20;;;;;;;;;;;;;;;18.67;37.05;100974.06;6273681;22;19994;-91
2022/03/27 16:31:45;;;;;;;;;;;;;;;18.44;38.14;100967.03;6222330;22;20344;-90
2022/03/27 16:34:10;;;;;;;;;;;;;;;18.38;38.20;100968.91;6222974;22;19915;-92
2022/03/27 16:36:36;;;;;;;;;;;;;;;18.14;38.33;100970.78;6221887;22;20357;-90
2022/03/27 16:39:01;;;;;;;;;;;;;;;18.06;38.87;100963.91;6196709;22;20050;-90
2022/03/27 16:41:28;;;;;;;;;;;;;;;17.95;39.03;100969.97;6220977;22;20328;-91
2022/03/27 16:43:53;;;;;;;;;;;;;;;17.72;39.24;100964.94;6222295;22;19915;-91
2022/03/27 16:46:18;;;;;;;;;;;;;;;17.59;39.72;100973.47;6221561;22;20374;-90
2022/03/27 16:48:44;;;;;;;;;;;;;;;17.45;40.30;100973.22;6246434;22;19919;-90
2022/03/27 16:51:09;;;;;;;;;;;;;;;17.34;40.64;100978.50;6246340;22;20366;-90
2022/03/27 16:53:35;;;;;;;;;;;;;;;17.23;40.19;100967.69;6246597;22;20382;-91
2022/03/27 16:56:01;;;;;;;;;;;;;;;17.14;40.73;100973.25;6221113;22;19915;-90
2022/03/27 16:58:27;;;;;;;;;;;;;;;16.98;40.88;100968.66;6246676;22;19919;-90
2022/03/27 17:00:52;;;;;;;;;;;;;;;16.90;41.00;100975.00;6221038;22;19922;-90
2022/03/27 17:03:19;;;;;;;;;;;;;;;16.67;41.24;100957.41;6220694;22;19918;-90
2022/03/27 17:05:45;;;;;;;;;;;;;;;16.54;41.73;100970.66;6195764;22;20002;-89
2022/03/27 17:08:10;;;;;;;;;;;;;;;16.42;41.94;100974.28;6218710;22;19940;-91
2022/03/27 17:10:35;;;;;;;;;;;;;;;16.29;42.24;100973.59;6218031;22;19953;-91
2022/03/27 17:13:01;;;;;;;;;;;;;;;16.19;42.37;100971.94;6194596;22;19915;-91
2022/03/27 17:15:27;;;;;;;;;;;;;;;16.12;42.36;100972.19;6219666;22;19919;-92
2022/03/27 17:17:52;;;;;;;;;;;;;;;16.00;42.72;100975.81;6219003;22;19911;-91
2022/03/27 17:20:17;;;;;;;;;;;;;;;15.91;43.02;100975.69;6193853;22;20327;-91
2022/03/27 17:22:43;;;;;;;;;;;;;;;15.84;42.82;100980.31;6219064;22;20251;-91
2022/03/27 17:25:09;;;;;;;;;;;;;;;15.82;43.29;100973.59;6219001;22;19926;-90
2022/03/27 17:27:36;;;;;;;;;;;;;;;15.76;43.33;100973.41;6244194;22;19926;-90
2022/03/27 17:30:03;;;;;;;;;;;;;;;15.71;43.41;100971.16;6219924;22;20358;-90
2022/03/27 17:32:29;;;;;;;;;;;;;;;15.66;43.57;100974.50;6244777;22;19915;-90
2022/03/27 17:34:54;;;;;;;;;;;;;;;15.58;43.50;100973.19;6218771;22;19941;-90
2022/03/27 17:37:20;;;;;;;;;;;;;;;15.50;43.58;100968.25;6244091;22;19919;-89
2022/03/27 17:39:45;;;;;;;;;;;;;;;15.34;44.00;100974.72;6243609;22;19990;-90
2022/03/27 17:42:11;;;;;;;;;;;;;;;15.14;44.25;100976.94;6243522;22;20399;-88
2022/03/27 17:44:37;;;;;;;;;;;;;;;15.02;44.76;100986.88;6217587;22;19915;-90
2022/03/27 17:47:03;;;;;;;;;;;;;;;14.93;45.01;100990.34;6244917;22;20391;-90
2022/03/27 17:49:28;;;;;;;;;;;;;;;14.84;45.13;100987.41;6198420;22;20322;-92
2022/03/27 17:51:53;;;;;;;;;;;;;;;14.78;45.33;100993.97;6222848;22;19919;-93
2022/03/27 17:54:19;;;;;;;;;;;;;;;14.67;45.77;100994.28;6219460;22;19947;-91
2022/03/27 17:56:45;;;;;;;;;;;;;;;14.60;45.80;100997.25;6220116;22;19930;-94
2022/03/27 17:59:11;;;;;;;;;;;;;;;14.57;45.91;100994.56;6195925;22;20385;-94
2022/03/27 18:01:37;;;;;;;;;;;;;;;14.44;46.30;100992.53;6219273;22;19919;-94
2022/03/27 18:04:02;;;;;;;;;;;;;;;14.34;46.49;100995.59;6245455;22;19951;-93
2022/03/27 18:06:27;;;;;;;;;;;;;;;14.18;47.11;101007.56;6245960;22;20353;-93
2022/03/27 18:08:53;;;;;;;;;;;;;;;14.11;47.28;101001.38;6194562;22;19939;-91
2022/03/27 18:11:18;;;;;;;;;;;;;;;14.05;47.14;101009.50;6220738;22;19982;-92
2022/03/27 18:13:43;;;;;;;;;;;;;;;13.96;47.31;101006.53;6244891;22;20501;-86
2022/03/27 18:16:11;;;;;;;;;;;;;;;13.89;47.64;101006.72;6219727;22;19919;-90
2022/03/27 18:18:36;;;;;;;;;;;;;;;13.78;48.26;101006.97;6221333;22;19938;-92
2022/03/27 18:21:02;;;;;;;;;;;;;;;13.70;48.08;101015.94;6246869;22;20339;-88
2022/03/27 18:23:27;;;;;;;;;;;;;;;13.62;48.85;101014.56;6242692;22;19922;-91
2022/03/27 18:25:53;;;;;;;;;;;;;;;13.53;49.04;101023.50;6241974;22;20335;-91
2022/03/27 18:28:18;;;;;;;;;;;;;;;13.47;48.81;101025.22;6219079;22;19918;-86
2022/03/27 18:30:44;;;;;;;;;;;;;;;13.44;49.38;101026.88;6218452;22;19919;-86
2022/03/27 18:33:09;;;;;;;;;;;;;;;13.42;49.88;101029.34;6219168;22;19927;-90
2022/03/27 18:35:35;;;;;;;;;;;;;;;13.39;49.60;101035.75;6269805;22;19911;-90
2022/03/27 18:38:00;;;;;;;;;;;;;;;13.40;49.58;101037.31;6242060;22;20394;-88
2022/03/27 18:40:27;;;;;;;;;;;;;;;13.43;49.79;101035.66;6241283;22;19947;-88